Time;durP1;ratioP1;P1;durP2;ratioP2;P2;SDS_P1;SDS_P2;PMS_P1;PMS_P2;Temp;Humidity;BMP_temperature;BMP_pressure;BME280_temperature;BME280_humidity;BME280_pressure;Samples;Min_cycle;Max_cycle;Signal;HPM_P1;HPM_P2
2023/05/01 00:01:44;;;;;;;13.57;8.40;;;8.40;99.90;;;;;;6346895;22;20395;-82
2023/05/01 00:04:11;;;;;;;8.43;7.60;;;8.40;99.90;;;;;;6346256;22;20430;-82
2023/05/01 00:06:38;;;;;;;9.63;8.00;;;8.40;1.00;;;;;;6350245;22;20486;-82
2023/05/01 00:09:05;;;;;;;8.50;7.70;;;8.20;98.10;;;;;;6358067;22;20411;-82
2023/05/01 00:11:32;;;;;;;9.40;7.60;;;8.70;99.90;;;;;;6358642;22;20435;-82
2023/05/01 00:14:00;;;;;;;7.90;7.10;;;8.40;99.90;;;;;;6355861;22;20419;-82
2023/05/01 00:16:27;;;;;;;12.27;7.13;;;8.40;99.90;;;;;;6359373;22;20521;-82
2023/05/01 00:18:54;;;;;;;11.27;7.20;;;8.40;99.90;;;;;;6359635;22;20407;-82
2023/05/01 00:21:21;;;;;;;10.60;6.77;;;8.30;99.90;;;;;;6358073;22;20739;-82
2023/05/01 00:23:48;;;;;;;8.40;6.30;;;8.40;99.90;;;;;;6363790;22;20450;-82
2023/05/01 00:26:14;;;;;;;7.57;6.63;;;8.30;99.90;;;;;;6360772;22;20453;-82
2023/05/01 00:28:41;;;;;;;6.80;5.87;;;8.20;1.00;;;;;;6359402;22;20381;-82
2023/05/01 00:31:09;;;;;;;9.80;6.50;;;8.30;1.00;;;;;;6355096;22;20442;-82
2023/05/01 00:33:36;;;;;;;8.50;7.70;;;8.30;1.00;;;;;;6346875;22;20458;-82
2023/05/01 00:36:03;;;;;;;6.80;5.83;;;8.20;1.00;;;;;;6346094;22;20407;-82
2023/05/01 00:38:30;;;;;;;9.53;7.33;;;8.20;1.00;;;;;;6346975;22;20794;-82
2023/05/01 00:40:57;;;;;;;10.87;7.67;;;8.10;1.00;;;;;;6347845;22;20429;-82
2023/05/01 00:43:44;;;;;;;8.97;6.80;;;;;;;;;;6344068;22;20498;-89
2023/05/01 00:46:24;;;;;;;11.10;7.93;;;;;;;;;;6331076;22;20375;-88
2023/05/01 00:48:56;;;;;;;9.70;7.43;;;;;;;;;;6329694;22;20397;-87
2023/05/01 00:51:34;;;;;;;11.90;7.57;;;;;;;;;;6318306;22;20399;-88
2023/05/01 00:56:59;;;;;;;10.50;8.83;;;;;;;;;;6312194;22;20388;-87
2023/05/01 00:59:28;;;;;;;12.13;8.50;;;;;;;;;;6334290;22;20403;-88
2023/05/01 01:01:57;;;;;;;11.50;8.07;;;;;;;;;;6336951;22;20362;-87
2023/05/01 01:04:30;;;;;;;11.95;8.18;;;;;;;;;;6335112;22;20204;-89
2023/05/01 01:07:13;;;;;;;14.33;8.30;;;7.50;1.00;;;;;;6336451;22;20174;-87
2023/05/01 01:10:07;;;;;;;9.50;8.40;;;7.50;1.00;;;;;;6336932;22;20357;-87
2023/05/01 01:15:28;;;;;;;11.27;8.23;;;7.30;1.00;;;;;;6320243;22;20507;-88
2023/05/01 01:18:17;;;;;;;12.50;9.40;;;7.30;1.00;;;;;;6331563;22;20414;-88
2023/05/01 01:20:51;;;;;;;14.20;9.17;;;7.30;1.00;;;;;;6324921;22;20752;-88
2023/05/01 01:24:14;;;;;;;10.33;9.33;;;7.20;1.00;;;;;;6323381;22;20424;-87
2023/05/01 01:27:22;;;;;;;10.30;9.20;;;7.20;1.00;;;;;;6271314;22;20448;-86
2023/05/01 01:30:28;;;;;;;14.82;9.68;;;7.40;99.90;;;;;;6303471;22;20920;-86
2023/05/01 01:33:17;;;;;;;14.88;10.05;;;7.20;1.00;;;;;;6276558;22;20515;-85
2023/05/01 01:35:53;;;;;;;13.95;9.82;;;6.90;1.00;;;;;;6317442;22;20184;-86
2023/05/01 01:38:24;;;;;;;10.75;9.65;;;6.90;1.00;;;;;;6284927;22;20202;-86
2023/05/01 01:41:01;;;;;;;14.33;10.27;;;6.80;1.00;;;;;;6285351;22;20207;-86
2023/05/01 01:43:36;;;;;;;16.00;11.52;;;6.90;1.00;;;;;;6286238;22;20456;-87
2023/05/01 01:46:06;;;;;;;12.40;9.60;;;7.10;1.00;;;;;;6289203;22;20226;-85
2023/05/01 01:48:36;;;;;;;13.93;10.03;;;6.90;76.00;;;;;;6290518;22;20169;-89
2023/05/01 01:51:08;;;;;;;10.87;8.73;;;6.80;1.00;;;;;;6287772;22;20439;-87
2023/05/01 01:53:37;;;;;;;12.87;10.37;;;6.80;1.00;;;;;;6286902;22;20367;-87
2023/05/01 01:56:06;;;;;;;15.93;11.27;;;6.70;1.00;;;;;;6286914;22;20401;-87
2023/05/01 01:58:35;;;;;;;11.50;10.27;;;6.70;1.00;;;;;;6285809;22;20227;-88
2023/05/01 02:01:03;;;;;;;15.10;10.60;;;6.50;99.90;;;;;;6290894;22;20162;-86
2023/05/01 02:03:31;;;;;;;14.07;9.82;;;6.60;1.00;;;;;;6299832;22;20240;-87
2023/05/01 02:06:00;;;;;;;14.95;11.10;;;6.50;1.00;;;;;;6287553;22;20208;-87
2023/05/01 02:08:29;;;;;;;16.80;11.82;;;6.50;1.00;;;;;;6286039;22;20178;-87
2023/05/01 02:10:58;;;;;;;11.95;10.35;;;6.60;19.10;;;;;;6286166;22;20198;-87
2023/05/01 02:13:28;;;;;;;13.65;10.38;;;6.60;56.70;;;;;;6288431;22;20181;-87
2023/05/01 02:15:56;;;;;;;26.67;19.85;;;6.40;1.00;;;;;;6295484;22;20261;-87
2023/05/01 02:18:23;;;;;;;11.73;10.35;;;6.50;35.30;;;;;;6294982;22;20197;-87
2023/05/01 02:20:51;;;;;;;18.05;11.30;;;6.30;1.00;;;;;;6287606;22;20185;-88
2023/05/01 02:23:18;;;;;;;12.50;9.73;;;6.00;1.00;;;;;;6285745;22;20252;-86
2023/05/01 02:25:49;;;;;;;14.40;10.27;;;6.40;99.90;;;;;;6305465;22;20167;-85
2023/05/01 02:28:22;;;;;;;14.05;10.70;;;6.30;1.00;;;;;;6305445;22;20166;-87
2023/05/01 02:30:49;;;;;;;14.57;10.07;;;6.30;99.90;;;;;;6303328;22;20183;-87
2023/05/01 02:33:16;;;;;;;14.15;10.30;;;6.20;99.90;;;;;;6301539;22;20205;-87
2023/05/01 02:35:46;;;;;;;12.15;10.50;;;6.20;99.90;;;;;;6302630;22;20173;-87
2023/05/01 02:38:13;;;;;;;16.23;10.18;;;6.10;1.00;;;;;;6305080;22;20178;-86
2023/05/01 02:40:44;;;;;;;13.85;10.60;;;6.00;1.00;;;;;;6306072;22;20242;-87
2023/05/01 02:43:16;;;;;;;12.93;10.95;;;6.20;99.90;;;;;;6307670;22;20154;-86
2023/05/01 02:45:44;;;;;;;18.15;11.82;;;6.20;99.90;;;;;;6307854;22;20162;-85
2023/05/01 02:48:17;;;;;;;15.48;10.30;;;6.20;99.90;;;;;;6307108;22;20187;-86
2023/05/01 02:50:44;;;;;;;11.98;10.57;;;6.20;99.90;;;;;;6307415;22;20170;-87
2023/05/01 02:53:13;;;;;;;15.82;12.10;;;6.10;99.90;;;;;;6307576;22;20178;-86
2023/05/01 02:55:41;;;;;;;13.27;9.80;;;6.10;99.90;;;;;;6302508;22;20634;-86
2023/05/01 02:58:08;;;;;;;13.30;11.38;;;6.10;99.90;;;;;;6294055;22;20682;-86
2023/05/01 03:00:36;;;;;;;15.77;10.45;;;6.00;99.90;;;;;;6292449;22;20174;-87
2023/05/01 03:03:04;;;;;;;11.63;9.65;;;6.10;1.00;;;;;;6287733;22;20178;-87
2023/05/01 03:05:30;;;;;;;12.13;9.73;;;5.70;1.00;;;;;;6286920;22;20178;-87
2023/05/01 03:07:57;;;;;;;13.07;10.07;;;6.00;99.90;;;;;;6287820;22;20222;-87
2023/05/01 03:10:24;;;;;;;13.55;8.48;;;;;;;;;;6287639;22;20185;-88
2023/05/01 03:12:51;;;;;;;15.23;10.35;;;6.30;1.00;;;;;;6286965;22;20258;-87
2023/05/01 03:15:18;;;;;;;11.95;10.45;;;6.10;1.00;;;;;;6286933;22;20178;-87
2023/05/01 03:17:46;;;;;;;13.57;10.43;;;6.00;99.90;;;;;;6286102;22;20269;-87
2023/05/01 03:20:13;;;;;;;12.20;9.27;;;6.00;99.90;;;;;;6287987;22;20261;-86
2023/05/01 03:22:40;;;;;;;14.90;8.73;;;6.10;99.90;;;;;;6306970;22;20178;-86
2023/05/01 03:25:08;;;;;;;12.90;8.57;;;6.40;99.90;;;;;;6291882;22;20184;-88
2023/05/01 03:27:35;;;;;;;16.27;11.70;;;5.90;99.90;;;;;;6286586;22;20202;-88
2023/05/01 03:30:03;;;;;;;12.38;10.25;;;5.80;99.90;;;;;;6287510;22;20178;-89
2023/05/01 03:32:30;;;;;;;12.73;9.32;;;5.70;1.00;;;;;;6295935;22;20205;-88
2023/05/01 03:34:59;;;;;;;11.35;9.18;;;5.90;99.90;;;;;;6298039;22;20179;-89
2023/05/01 03:37:26;;;;;;;13.82;9.82;;;5.90;99.90;;;;;;6296800;22;20189;-86
2023/05/01 03:39:52;;;;;;;12.40;9.73;;;6.10;1.00;;;;;;6306663;22;20169;-85
2023/05/01 03:42:23;;;;;;;10.73;8.38;;;5.90;1.00;;;;;;6306873;22;20174;-85
2023/05/01 03:44:50;;;;;;;13.98;9.13;;;5.80;99.90;;;;;;6302449;22;20210;-88
2023/05/01 03:47:16;;;;;;;9.00;7.95;;;5.80;99.90;;;;;;6296106;22;20252;-87
2023/05/01 03:49:43;;;;;;;10.38;9.32;;;6.00;1.00;;;;;;6293079;22;20179;-87
2023/05/01 03:52:13;;;;;;;11.52;8.40;;;5.70;99.90;;;;;;6297082;22;20198;-88
2023/05/01 03:54:40;;;;;;;15.05;8.38;;;5.80;99.90;;;;;;6301169;22;20174;-87
2023/05/01 03:57:08;;;;;;;12.60;9.38;;;6.00;1.00;;;;;;6305360;22;20180;-87
2023/05/01 03:59:35;;;;;;;11.63;8.45;;;6.70;99.90;;;;;;6303491;22;20210;-86
2023/05/01 04:02:03;;;;;;;10.50;8.32;;;5.70;99.90;;;;;;6302303;22;20177;-87
2023/05/01 04:04:30;;;;;;;13.00;8.23;;;5.80;99.90;;;;;;6288561;22;20209;-87
2023/05/01 04:06:57;;;;;;;14.63;9.10;;;5.80;1.00;;;;;;6287697;22;20295;-88
2023/05/01 04:09:25;;;;;;;10.63;8.50;;;5.70;99.90;;;;;;6287125;22;20238;-87
2023/05/01 04:11:52;;;;;;;13.13;8.85;;;5.60;1.00;;;;;;6286109;22;20201;-88
2023/05/01 04:14:19;;;;;;;13.30;8.75;;;5.70;99.90;;;;;;6285923;22;20226;-88
2023/05/01 04:16:46;;;;;;;10.52;8.25;;;6.10;1.00;;;;;;6285694;22;20277;-88
2023/05/01 04:19:13;;;;;;;11.27;7.75;;;5.60;1.00;;;;;;6286179;22;20185;-88
2023/05/01 04:21:40;;;;;;;9.73;8.68;;;5.90;66.40;;;;;;6286873;22;20261;-86
2023/05/01 04:24:07;;;;;;;10.32;7.43;;;5.90;50.60;;;;;;6285971;22;20559;-88
2023/05/01 04:26:35;;;;;;;13.30;7.70;;;5.90;41.30;;;;;;6284989;22;20650;-87
2023/05/01 04:29:02;;;;;;;14.15;8.23;;;6.00;52.80;;;;;;6286173;22;20192;-88
2023/05/01 04:31:29;;;;;;;13.52;8.02;;;6.50;1.00;;;;;;6285392;22;20762;-87
2023/05/01 04:33:55;;;;;;;10.60;8.27;;;6.00;33.20;;;;;;6285380;22;20202;-87
2023/05/01 04:36:22;;;;;;;13.98;8.80;;;5.90;18.40;;;;;;6286558;22;20198;-87
2023/05/01 04:38:49;;;;;;;8.73;7.13;;;5.90;1.00;;;;;;6286392;22;20178;-87
2023/05/01 04:41:16;;;;;;;10.68;7.97;;;5.80;99.90;;;;;;6286453;22;20174;-87
2023/05/01 04:43:44;;;;;;;10.70;7.88;;;6.00;1.00;;;;;;6286555;22;20202;-87
2023/05/01 04:46:11;;;;;;;11.30;7.72;;;5.70;1.00;;;;;;6288754;22;20203;-87
2023/05/01 04:48:38;;;;;;;11.60;7.35;;;6.00;1.00;;;;;;6291110;22;20205;-87
2023/05/01 04:51:05;;;;;;;10.48;7.30;;;6.00;99.90;;;;;;6287326;22;20175;-87
2023/05/01 04:53:32;;;;;;;11.70;7.93;;;6.20;99.90;;;;;;6286500;22;20206;-87
2023/05/01 04:55:59;;;;;;;8.90;6.80;;;6.00;99.90;;;;;;6286900;22;20225;-87
2023/05/01 04:58:29;;;;;;;10.05;7.68;;;6.60;99.90;;;;;;6285044;22;20623;-87
2023/05/01 05:00:57;;;;;;;17.90;7.40;;;6.40;1.00;;;;;;6286707;22;20217;-85
2023/05/01 05:03:24;;;;;;;9.73;6.70;;;6.60;99.90;;;;;;6287288;22;20253;-87
2023/05/01 05:05:51;;;;;;;11.27;7.22;;;;;;;;;;6288802;22;20655;-85
2023/05/01 05:08:18;;;;;;;8.23;6.50;;;6.50;1.00;;;;;;6302150;22;20186;-85
2023/05/01 05:10:45;;;;;;;9.65;7.55;;;6.90;99.90;;;;;;6296731;22;20409;-87
2023/05/01 05:13:11;;;;;;;9.90;8.23;;;6.60;1.00;;;;;;6286249;22;20285;-87
2023/05/01 05:15:38;;;;;;;10.45;7.40;;;6.40;99.90;;;;;;6286520;22;20515;-87
2023/05/01 05:18:06;;;;;;;12.48;8.10;;;6.70;1.00;;;;;;6288175;22;20197;-87
2023/05/01 05:20:37;;;;;;;9.88;7.13;;;6.80;1.00;;;;;;6301098;22;20488;-87
2023/05/01 05:23:04;;;;;;;8.32;6.13;;;6.90;1.00;;;;;;6287041;22;20615;-87
2023/05/01 05:25:31;;;;;;;10.20;7.50;;;6.40;1.00;;;;;;6286603;22;20509;-87
2023/05/01 05:27:59;;;;;;;10.80;7.35;;;7.00;1.00;;;;;;6286474;22;20285;-87
2023/05/01 05:30:26;;;;;;;10.10;6.45;;;7.00;1.00;;;;;;6286139;22;20188;-87
2023/05/01 05:32:53;;;;;;;9.45;6.82;;;7.10;1.00;;;;;;6285286;22;20209;-87
2023/05/01 05:35:22;;;;;;;8.25;6.15;;;7.10;1.00;;;;;;6285739;22;20178;-87
2023/05/01 05:37:49;;;;;;;8.32;7.40;;;7.10;1.00;;;;;;6288155;22;20198;-87
2023/05/01 05:40:16;;;;;;;9.30;7.25;;;7.30;1.00;;;;;;6286488;22;20178;-87
2023/05/01 05:42:43;;;;;;;14.05;6.65;;;7.50;1.00;;;;;;6286421;22;20253;-87
2023/05/01 05:45:10;;;;;;;9.87;5.80;;;7.60;1.00;;;;;;6287875;22;20178;-87
2023/05/01 05:47:38;;;;;;;8.95;6.03;;;7.80;1.00;;;;;;6286145;22;20459;-87
2023/05/01 05:50:06;;;;;;;11.57;5.80;;;7.90;1.00;;;;;;6286719;22;20174;-86
2023/05/01 05:52:34;;;;;;;11.13;5.90;;;7.90;1.00;;;;;;6293218;22;20453;-87
2023/05/01 05:55:01;;;;;;;7.17;4.90;;;8.10;99.90;;;;;;6287018;22;20182;-87
2023/05/01 05:57:28;;;;;;;8.20;5.40;;;8.50;1.00;;;;;;6285998;22;20435;-87
2023/05/01 05:59:56;;;;;;;5.83;4.93;;;;;;;;;;6285291;22;20461;-87
2023/05/01 06:02:22;;;;;;;9.30;4.63;;;8.50;99.90;;;;;;6286161;22;20423;-87
2023/05/01 06:04:49;;;;;;;5.93;4.47;;;8.80;68.10;;;;;;6287109;22;20809;-87
2023/05/01 06:07:16;;;;;;;7.27;5.70;;;8.70;99.90;;;;;;6292091;22;20432;-87
2023/05/01 06:09:44;;;;;;;9.43;5.20;;;8.80;99.90;;;;;;6289002;22;20436;-86
2023/05/01 06:12:11;;;;;;;8.90;5.90;;;;;;;;;;6281799;22;20844;-86
2023/05/01 06:14:39;;;;;;;8.93;4.63;;;6.20;99.90;;;;;;6282279;22;20749;-86
2023/05/01 06:17:06;;;;;;;10.53;4.53;;;9.10;99.90;;;;;;6284033;22;20805;-87
2023/05/01 06:19:33;;;;;;;7.40;5.50;;;9.20;99.90;;;;;;6291545;22;20397;-86
2023/05/01 06:22:00;;;;;;;6.10;5.00;;;9.30;99.90;;;;;;6302923;22;20385;-85
2023/05/01 06:24:27;;;;;;;7.50;4.20;;;9.30;99.90;;;;;;6300978;22;20984;-87
2023/05/01 06:26:56;;;;;;;9.30;4.37;;;9.40;99.90;;;;;;6287829;22;20808;-87
2023/05/01 06:29:23;;;;;;;6.80;5.70;;;9.60;99.90;;;;;;6291025;22;20405;-88
2023/05/01 06:31:49;;;;;;;10.10;5.00;;;9.70;99.90;;;;;;6304786;22;20412;-86
2023/05/01 06:34:16;;;;;;;6.27;5.27;;;10.10;1.00;;;;;;6304689;22;20416;-85
2023/05/01 06:36:43;;;;;;;5.80;4.40;;;9.90;99.90;;;;;;6299777;22;20420;-85
2023/05/01 06:39:10;;;;;;;7.53;3.90;;;9.90;1.00;;;;;;6301890;22;20529;-85
2023/05/01 06:41:37;;;;;;;5.73;4.33;;;10.10;99.90;;;;;;6297919;22;20428;-86
2023/05/01 06:44:06;;;;;;;5.23;3.90;;;10.30;99.90;;;;;;6300721;22;20438;-87
2023/05/01 06:46:33;;;;;;;13.10;5.03;;;10.40;99.90;;;;;;6296368;22;20417;-87
2023/05/01 06:48:59;;;;;;;6.37;4.60;;;10.80;1.00;;;;;;6293538;22;20400;-87
2023/05/01 06:51:26;;;;;;;6.57;4.63;;;10.60;99.90;;;;;;6299082;22;20702;-86
2023/05/01 06:53:53;;;;;;;5.30;4.30;;;10.60;99.90;;;;;;6287316;22;20432;-86
2023/05/01 06:56:20;;;;;;;6.83;4.37;;;10.80;99.90;;;;;;6298616;22;20425;-86
2023/05/01 06:58:47;;;;;;;4.67;4.27;;;11.20;1.00;;;;;;6302641;22;20413;-86
2023/05/01 07:01:16;;;;;;;6.27;4.60;;;11.40;1.00;;;;;;6305168;22;20413;-87
2023/05/01 07:03:43;;;;;;;9.00;4.60;;;11.90;1.00;;;;;;6304705;22;20405;-86
2023/05/01 07:06:10;;;;;;;7.33;4.97;;;11.10;1.00;;;;;;6302977;22;20408;-87
2023/05/01 07:08:40;;;;;;;6.40;4.40;;;11.00;99.90;;;;;;6302503;22;20444;-87
2023/05/01 07:11:07;;;;;;;5.70;4.13;;;11.20;99.90;;;;;;6303430;22;20393;-86
2023/05/01 07:13:34;;;;;;;15.13;9.07;;;11.30;99.90;;;;;;6301690;22;20447;-87
2023/05/01 07:16:02;;;;;;;8.20;5.30;;;11.10;1.00;;;;;;6301567;22;20401;-87
2023/05/01 07:18:30;;;;;;;7.30;4.67;;;11.40;99.90;;;;;;6302796;22;20460;-88
2023/05/01 07:20:57;;;;;;;5.57;4.50;;;11.50;99.90;;;;;;6294538;22;20409;-86
2023/05/01 07:23:24;;;;;;;8.20;5.30;;;11.70;99.90;;;;;;6288849;22;20401;-87
2023/05/01 07:25:52;;;;;;;4.63;4.13;;;;;;;;;;6289367;22;20416;-88
2023/05/01 07:28:20;;;;;;;7.10;4.30;;;;;;;;;;6327724;22;20448;-81
2023/05/01 07:30:47;;;;;;;7.40;4.70;;;11.90;99.90;;;;;;6336822;22;20463;-81
2023/05/01 07:33:14;;;;;;;10.37;4.80;;;11.80;99.90;;;;;;6336524;22;20431;-81
2023/05/01 07:35:42;;;;;;;6.37;3.90;;;12.00;99.90;;;;;;6322720;22;20919;-81
2023/05/01 07:38:09;;;;;;;4.97;3.40;;;12.20;99.90;;;;;;6319970;22;20463;-81
2023/05/01 07:40:37;;;;;;;4.97;4.57;;;12.50;99.90;;;;;;6318291;22;20412;-81
2023/05/01 07:43:04;;;;;;;4.67;4.17;;;12.70;99.90;;;;;;6318034;22;20419;-82
2023/05/01 07:45:31;;;;;;;4.67;3.80;;;12.70;99.90;;;;;;6322631;22;20385;-82
2023/05/01 07:47:59;;;;;;;5.17;4.60;;;12.80;99.90;;;;;;6337194;22;20470;-81
2023/05/01 07:50:26;;;;;;;5.10;4.20;;;12.60;99.90;;;;;;6337096;22;20411;-81
2023/05/01 07:52:54;;;;;;;6.03;4.43;;;12.60;99.90;;;;;;6330085;22;20447;-81
2023/05/01 07:55:22;;;;;;;9.47;5.00;;;12.80;99.90;;;;;;6328692;22;20407;-81
2023/05/01 07:57:49;;;;;;;5.83;4.80;;;13.00;99.90;;;;;;6327431;22;20420;-81
2023/05/01 08:00:16;;;;;;;8.10;3.80;;;13.10;99.90;;;;;;6324238;22;20457;-81
2023/05/01 08:02:44;;;;;;;6.40;4.00;;;13.30;99.90;;;;;;6318920;22;20463;-81
2023/05/01 08:05:11;;;;;;;11.80;4.20;;;13.10;99.90;;;;;;6319135;22;20404;-82
2023/05/01 08:07:38;;;;;;;7.43;4.37;;;13.10;99.90;;;;;;6319940;22;20448;-82
2023/05/01 08:10:07;;;;;;;5.37;4.20;;;13.00;99.90;;;;;;6319051;22;20412;-82
2023/05/01 08:12:34;;;;;;;10.60;4.57;;;13.10;99.90;;;;;;6318290;22;20471;-82
2023/05/01 08:15:01;;;;;;;4.57;4.07;;;13.10;99.90;;;;;;6318847;22;20457;-82
2023/05/01 08:17:28;;;;;;;4.30;3.90;;;13.30;99.90;;;;;;6318941;22;20727;-82
2023/05/01 08:19:55;;;;;;;7.10;4.30;;;13.50;99.90;;;;;;6323331;22;20428;-82
2023/05/01 08:22:22;;;;;;;6.10;3.53;;;13.20;1.00;;;;;;6323464;22;20510;-82
2023/05/01 08:24:49;;;;;;;4.17;3.30;;;13.60;99.90;;;;;;6320545;22;20535;-82
2023/05/01 08:27:18;;;;;;;6.03;4.13;;;13.40;99.90;;;;;;6320297;22;20446;-82
2023/05/01 08:29:45;;;;;;;3.93;3.47;;;13.50;99.90;;;;;;6320131;22;20759;-82
2023/05/01 08:32:12;;;;;;;4.13;3.73;;;13.60;99.90;;;;;;6319082;22;20404;-82
2023/05/01 08:34:38;;;;;;;8.37;3.67;;;13.70;99.90;;;;;;6318992;22;20428;-83
2023/05/01 08:37:05;;;;;;;11.77;3.77;;;13.90;99.90;;;;;;6317275;22;20488;-82
2023/05/01 08:39:32;;;;;;;5.33;4.00;;;14.00;99.90;;;;;;6318253;22;20453;-82
2023/05/01 08:41:59;;;;;;;3.63;2.97;;;14.00;99.90;;;;;;6318199;22;20404;-83
2023/05/01 08:44:28;;;;;;;4.30;3.53;;;14.10;99.90;;;;;;6318199;22;20422;-82
2023/05/01 08:47:11;;;;;;;7.80;4.30;;;14.00;1.00;;;;;;6317382;22;20428;-82
2023/05/01 08:49:39;;;;;;;8.17;3.90;;;14.20;99.90;;;;;;6318857;22;20396;-82
2023/05/01 08:52:07;;;;;;;7.33;4.67;;;14.20;99.90;;;;;;6317628;22;20460;-81
2023/05/01 08:54:35;;;;;;;5.60;3.67;;;14.30;99.90;;;;;;6316356;22;20485;-83
2023/05/01 08:57:03;;;;;;;8.33;4.00;;;14.40;99.90;;;;;;6319341;22;20420;-83
2023/05/01 08:59:34;;;;;;;9.50;3.87;;;14.50;99.90;;;;;;6316447;22;20410;-83
2023/05/01 09:02:03;;;;;;;5.83;4.00;;;14.60;99.90;;;;;;6316802;22;20404;-82
2023/05/01 09:04:32;;;;;;;4.83;3.57;;;14.70;99.90;;;;;;6320453;22;20399;-82
2023/05/01 09:07:00;;;;;;;5.80;3.40;;;14.80;99.90;;;;;;6328881;22;20475;-81
2023/05/01 09:09:30;;;;;;;12.90;8.57;;;14.80;99.90;;;;;;6323735;22;20396;-83
2023/05/01 09:12:02;;;;;;;4.13;3.73;;;14.80;99.90;;;;;;6323516;22;20415;-82
2023/05/01 09:14:31;;;;;;;9.13;3.90;;;15.40;1.00;;;;;;6320988;22;20428;-82
2023/05/01 09:16:59;;;;;;;3.70;3.40;;;15.10;99.90;;;;;;6320412;22;20495;-81
2023/05/01 09:19:26;;;;;;;5.57;3.10;;;15.30;1.00;;;;;;6321844;22;20457;-82
2023/05/01 09:21:54;;;;;;;4.97;3.50;;;15.30;99.90;;;;;;6318199;22;20435;-82
2023/05/01 09:24:23;;;;;;;6.30;4.63;;;15.00;99.90;;;;;;6321486;22;20398;-82
2023/05/01 09:26:51;;;;;;;4.90;3.70;;;15.10;99.90;;;;;;6320921;22;20932;-82
2023/05/01 09:29:38;;;;;;;3.70;3.10;;;15.30;99.90;;;;;;6319255;22;20404;-83
2023/05/01 09:32:16;;;;;;;6.53;3.43;;;15.60;99.90;;;;;;6323759;22;20435;-82
2023/05/01 09:34:43;;;;;;;6.10;3.37;;;15.60;99.90;;;;;;6320977;22;20412;-83
2023/05/01 09:37:12;;;;;;;7.10;5.17;;;15.90;99.90;;;;;;6320712;22;20431;-82
2023/05/01 09:39:39;;;;;;;4.87;3.33;;;15.60;99.90;;;;;;6320827;22;20408;-83
2023/05/01 09:42:06;;;;;;;9.83;3.60;;;15.60;99.90;;;;;;6321818;22;20404;-83
2023/05/01 09:44:42;;;;;;;4.77;3.80;;;15.70;99.90;;;;;;6322666;22;20447;-83
2023/05/01 09:47:09;;;;;;;5.30;3.27;;;15.70;99.90;;;;;;6319621;22;20432;-82
2023/05/01 09:49:48;;;;;;;5.47;4.03;;;15.60;99.90;;;;;;6320881;22;20457;-82
2023/05/01 09:52:15;;;;;;;5.30;3.77;;;15.80;99.90;;;;;;6321664;22;20412;-82
2023/05/01 09:54:43;;;;;;;4.87;3.00;;;15.90;99.90;;;;;;6322472;22;20469;-82
2023/05/01 09:57:10;;;;;;;6.73;3.87;;;15.90;99.90;;;;;;6335075;22;20480;-82
2023/05/01 09:59:37;;;;;;;5.67;3.00;;;15.90;99.90;;;;;;6330771;22;20408;-82
2023/05/01 10:02:04;;;;;;;4.03;3.73;;;15.90;99.90;;;;;;6323563;22;20414;-82
2023/05/01 10:04:32;;;;;;;4.43;4.03;;;15.70;99.90;;;;;;6325075;22;20400;-82
2023/05/01 10:07:12;;;;;;;8.50;4.40;;;15.70;99.90;;;;;;6324162;22;20450;-83
2023/05/01 10:09:40;;;;;;;3.63;3.30;;;15.70;99.90;;;;;;6323172;22;20391;-82
2023/05/01 10:12:07;;;;;;;5.20;4.30;;;15.90;99.90;;;;;;6324953;22;20412;-82
2023/05/01 10:14:37;;;;;;;6.10;3.73;;;16.00;99.90;;;;;;6324349;22;20435;-82
2023/05/01 10:17:18;;;;;;;5.10;3.90;;;16.10;99.90;;;;;;6323694;22;20908;-82
2023/05/01 10:19:45;;;;;;;3.93;3.63;;;16.10;99.90;;;;;;6325167;22;20424;-82
2023/05/01 10:22:13;;;;;;;4.87;4.23;;;16.00;99.90;;;;;;6320840;22;20504;-82
2023/05/01 10:24:41;;;;;;;5.77;4.00;;;16.10;99.90;;;;;;6319571;22;20402;-82
2023/05/01 10:27:09;;;;;;;5.33;4.23;;;16.00;99.90;;;;;;6315893;22;20455;-83
2023/05/01 10:29:39;;;;;;;6.07;4.17;;;15.90;99.90;;;;;;6317142;22;20414;-83
2023/05/01 10:32:08;;;;;;;6.27;4.23;;;16.00;99.90;;;;;;6324159;22;20872;-82
2023/05/01 10:34:38;;;;;;;14.00;4.57;;;16.20;99.90;;;;;;6327418;22;20439;-83
2023/05/01 10:37:11;;;;;;;8.00;5.73;;;16.10;99.90;;;;;;6326062;22;20420;-82
2023/05/01 10:39:40;;;;;;;6.30;4.73;;;16.50;1.00;;;;;;6314747;22;20388;-83
2023/05/01 10:42:09;;;;;;;8.00;4.70;;;16.40;99.90;;;;;;6314481;22;20438;-83
2023/05/01 10:44:37;;;;;;;8.73;6.27;;;16.50;99.90;;;;;;6312296;22;20928;-83
2023/05/01 10:47:42;;;;;;;7.70;5.03;;;16.60;1.00;;;;;;6313344;22;20458;-82
2023/05/01 10:50:10;;;;;;;5.17;4.67;;;16.70;99.90;;;;;;6316578;22;20412;-82
2023/05/01 10:53:24;;;;;;;46.47;36.00;;;16.70;99.90;;;;;;6318186;22;20404;-82
2023/05/01 10:55:52;;;;;;;10.17;4.43;;;16.70;99.90;;;;;;6273272;22;20413;-82
2023/05/01 10:59:09;;;;;;;10.30;7.10;;;16.80;99.90;;;;;;6329082;22;20428;-81
2023/05/01 11:01:37;;;;;;;4.60;4.20;;;16.90;99.90;;;;;;6320202;22;20384;-81
2023/05/01 11:04:06;;;;;;;20.43;16.10;;;16.70;99.90;;;;;;6317427;22;20408;-82
2023/05/01 11:06:37;;;;;;;9.73;6.97;;;16.90;1.00;;;;;;6318721;22;20412;-81
2023/05/01 11:09:38;;;;;;;12.57;11.23;;;17.00;99.90;;;;;;6319611;22;20407;-82
2023/05/01 11:12:07;;;;;;;4.10;3.50;;;16.70;1.00;;;;;;6317650;22;20791;-82
2023/05/01 11:15:06;;;;;;;8.13;4.20;;;16.90;99.90;;;;;;6318130;22;20440;-81
2023/05/01 11:17:45;;;;;;;7.43;5.03;;;16.90;99.90;;;;;;6323510;22;20431;-82
2023/05/01 11:20:33;;;;;;;5.97;4.80;;;16.90;99.90;;;;;;6324244;22;20399;-82
2023/05/01 11:23:00;;;;;;;6.57;3.70;;;16.60;1.00;;;;;;6316051;22;20403;-82
2023/05/01 11:25:30;;;;;;;5.60;4.00;;;16.80;99.90;;;;;;6315973;22;20422;-82
2023/05/01 11:27:59;;;;;;;8.80;4.67;;;17.10;1.00;;;;;;6314408;22;20960;-82
2023/05/01 11:30:26;;;;;;;5.13;4.00;;;17.30;1.00;;;;;;6315277;22;20404;-82
2023/05/01 11:32:53;;;;;;;7.30;4.67;;;17.00;99.90;;;;;;6316769;22;20479;-81
2023/05/01 11:35:21;;;;;;;8.90;4.20;;;17.70;1.00;;;;;;6316882;22;20444;-82
2023/05/01 11:37:50;;;;;;;5.00;4.00;;;17.60;1.00;;;;;;6319217;22;20430;-82
2023/05/01 11:40:22;;;;;;;5.33;4.50;;;17.70;1.00;;;;;;6319490;22;20432;-82
2023/05/01 11:42:50;;;;;;;6.33;4.77;;;17.80;1.00;;;;;;6317932;22;20563;-83
2023/05/01 11:45:19;;;;;;;5.67;4.77;;;17.70;1.00;;;;;;6317986;22;20423;-83
2023/05/01 11:47:46;;;;;;;8.87;5.27;;;18.10;99.90;;;;;;6321082;22;20431;-82
2023/05/01 11:50:12;;;;;;;5.40;4.53;;;18.40;99.90;;;;;;6335602;22;20446;-81
2023/05/01 11:52:44;;;;;;;7.10;4.63;;;18.10;99.90;;;;;;6335591;22;20427;-81
2023/05/01 11:55:11;;;;;;;5.13;4.63;;;18.10;99.90;;;;;;6327265;22;20467;-83
2023/05/01 11:57:48;;;;;;;4.23;3.87;;;18.60;1.00;;;;;;6325466;22;20439;-81
2023/05/01 12:00:16;;;;;;;6.17;4.67;;;18.30;99.90;;;;;;6323090;22;20435;-82
2023/05/01 12:03:00;;;;;;;8.93;4.93;;;18.40;99.90;;;;;;6319535;22;20801;-82
2023/05/01 12:05:28;;;;;;;6.07;4.57;;;18.10;99.90;;;;;;6319185;22;20404;-82
2023/05/01 12:08:10;;;;;;;6.03;4.80;;;17.50;1.00;;;;;;6317473;22;20483;-82
2023/05/01 12:10:38;;;;;;;6.80;5.00;;;18.30;99.90;;;;;;6316954;22;20456;-82
2023/05/01 12:13:06;;;;;;;7.77;5.27;;;17.70;1.00;;;;;;6316716;22;20435;-82
2023/05/01 12:15:36;;;;;;;8.80;4.60;;;18.20;1.00;;;;;;6316777;22;20436;-82
2023/05/01 12:18:05;;;;;;;10.13;5.07;;;18.10;1.00;;;;;;6317564;22;20828;-82
2023/05/01 12:20:36;;;;;;;4.80;4.40;;;18.30;99.90;;;;;;6318052;22;20491;-82
2023/05/01 12:23:04;;;;;;;6.73;4.83;;;18.40;99.90;;;;;;6320394;22;20473;-83
2023/05/01 12:25:32;;;;;;;7.77;5.63;;;18.40;99.90;;;;;;6322575;22;20399;-82
2023/05/01 12:28:00;;;;;;;17.93;4.53;;;17.80;99.90;;;;;;6318406;22;20448;-82
2023/05/01 12:30:28;;;;;;;5.03;4.53;;;17.80;99.90;;;;;;6316063;22;20950;-82
2023/05/01 12:32:56;;;;;;;6.23;4.50;;;17.90;99.90;;;;;;6315911;22;20411;-82
2023/05/01 12:35:29;;;;;;;7.43;5.07;;;18.10;99.90;;;;;;6323672;22;20485;-82
2023/05/01 12:37:56;;;;;;;8.07;4.70;;;18.90;1.00;;;;;;6320886;22;20431;-82
2023/05/01 12:40:23;;;;;;;13.20;10.40;;;18.40;1.00;;;;;;6320747;22;20412;-82
2023/05/01 12:42:56;;;;;;;7.03;4.90;;;18.20;99.90;;;;;;6323308;22;20396;-82
2023/05/01 12:45:23;;;;;;;5.07;4.60;;;18.20;99.90;;;;;;6326900;22;20834;-81
2023/05/01 12:47:50;;;;;;;5.83;4.47;;;18.10;99.90;;;;;;6325509;22;20450;-82
2023/05/01 12:50:18;;;;;;;6.20;4.80;;;18.20;99.90;;;;;;6327280;22;20392;-81
2023/05/01 12:52:47;;;;;;;7.07;5.40;;;18.50;99.90;;;;;;6324693;22;20415;-82
2023/05/01 12:55:14;;;;;;;8.00;5.03;;;18.70;99.90;;;;;;6332919;22;20435;-80
2023/05/01 12:57:54;;;;;;;4.70;4.30;;;18.20;1.00;;;;;;6331644;22;20428;-82
2023/05/01 13:00:21;;;;;;;4.63;4.23;;;18.60;99.90;;;;;;6316062;22;20461;-83
2023/05/01 13:02:48;;;;;;;9.40;4.83;;;18.50;1.00;;;;;;6317405;22;20528;-81
2023/05/01 13:05:15;;;;;;;6.97;4.80;;;18.50;99.90;;;;;;6315614;22;20415;-82
2023/05/01 13:07:49;;;;;;;5.90;4.87;;;18.50;1.00;;;;;;6316051;22;20420;-81
2023/05/01 13:10:31;;;;;;;5.00;4.50;;;18.70;99.90;;;;;;6315574;22;20411;-82
2023/05/01 13:12:58;;;;;;;6.77;5.30;;;18.70;99.90;;;;;;6315419;22;20838;-82